createdAt,value
2023-05-14T06:58:07.140Z,96911.41
2023-05-14T07:00:33.551Z,96912.50
2023-05-14T07:03:00.035Z,96902.56
2023-05-14T07:05:26.600Z,96908.50
2023-05-14T07:07:53.021Z,96911.22
2023-05-14T07:10:19.455Z,96903.03
2023-05-14T07:12:45.921Z,96904.09
2023-05-14T07:15:12.426Z,96904.88
2023-05-14T07:17:39.085Z,96903.81
2023-05-14T07:20:06.186Z,96900.66
2023-05-14T07:22:32.761Z,96901.19
2023-05-14T07:24:59.232Z,96901.16
2023-05-14T07:27:26.003Z,96902.72
2023-05-14T07:29:52.531Z,96906.16
2023-05-14T07:32:18.935Z,96899.00
2023-05-14T07:34:45.359Z,96900.03
2023-05-14T07:37:11.832Z,96901.09
2023-05-14T07:39:38.491Z,96899.00
2023-05-14T07:42:05.171Z,96906.03
2023-05-14T07:44:31.680Z,96902.56
2023-05-14T07:46:58.218Z,96901.03
2023-05-14T07:49:24.649Z,96904.75
2023-05-14T07:51:51.040Z,96903.16
2023-05-14T07:54:17.742Z,96896.75
2023-05-14T07:56:44.545Z,96904.66
2023-05-14T07:59:11.000Z,96891.47
2023-05-14T08:01:39.339Z,96893.69
2023-05-14T08:04:06.182Z,96895.38
2023-05-14T08:06:32.848Z,96890.63
2023-05-14T08:08:59.376Z,96893.88
2023-05-14T08:11:26.266Z,96899.72
2023-05-14T08:13:52.797Z,96894.91
2023-05-14T08:16:19.325Z,96893.81
2023-05-14T08:18:45.746Z,96892.72
2023-05-14T08:21:12.192Z,96890.59
2023-05-14T08:23:38.613Z,96882.13
2023-05-14T08:26:05.180Z,96882.72
2023-05-14T08:28:31.586Z,96877.44
2023-05-14T08:30:58.035Z,96879.53
2023-05-14T08:33:24.479Z,96886.94
2023-05-14T08:35:53.043Z,96880.41
2023-05-14T08:38:19.561Z,96884.41
2023-05-14T08:40:59.728Z,96880.63
2023-05-14T08:43:30.858Z,96881.56
2023-05-14T08:46:01.061Z,96880.16
2023-05-14T08:48:33.526Z,96878.84
2023-05-14T08:51:01.559Z,96877.03
2023-05-14T08:53:28.501Z,96885.44
2023-05-14T08:55:55.053Z,96884.31
2023-05-14T08:58:21.681Z,96886.47
2023-05-14T09:00:48.464Z,96887.34
2023-05-14T09:03:15.978Z,96884.94
2023-05-14T09:05:42.962Z,96885.94
2023-05-14T09:08:09.313Z,96879.47
2023-05-14T09:10:35.681Z,96882.81
2023-05-14T09:13:02.497Z,96874.94
2023-05-14T09:15:29.664Z,96884.13
2023-05-14T09:17:56.750Z,96879.19
2023-05-14T09:20:25.138Z,96873.59
2023-05-14T09:22:54.870Z,96874.25
2023-05-14T09:25:26.813Z,96873.53
2023-05-14T09:27:56.728Z,96867.47
2023-05-14T09:30:25.479Z,96865.53
2023-05-14T09:32:54.473Z,96865.44
2023-05-14T09:35:23.411Z,96865.06
2023-05-14T09:37:51.758Z,96865.84
2023-05-14T09:40:19.898Z,96866.06
2023-05-14T09:42:48.168Z,96861.63
2023-05-14T09:45:15.764Z,96865.81
2023-05-14T09:47:42.749Z,96861.81
2023-05-14T09:50:10.036Z,96854.16
2023-05-14T09:52:37.296Z,96855.00
2023-05-14T09:55:04.212Z,96845.53
2023-05-14T09:57:30.972Z,96851.16
2023-05-14T09:59:57.533Z,96852.06
2023-05-14T10:02:26.390Z,96838.06
2023-05-14T10:04:54.510Z,96840.84
2023-05-14T10:07:25.244Z,96848.81
2023-05-14T10:09:58.214Z,96846.00
2023-05-14T10:12:31.735Z,96842.59
2023-05-14T10:15:01.293Z,96848.59
2023-05-14T10:17:32.095Z,96845.56
2023-05-14T10:20:02.554Z,96835.53
2023-05-14T10:22:33.905Z,96844.16
2023-05-14T10:25:01.867Z,96832.97
2023-05-14T10:27:28.741Z,96830.81
2023-05-14T10:29:56.404Z,96833.94
2023-05-14T10:32:25.751Z,96829.06
2023-05-14T10:34:53.554Z,96835.72
2023-05-14T10:37:25.448Z,96829.78
2023-05-14T10:39:51.844Z,96824.13
2023-05-14T10:42:22.442Z,96816.25
2023-05-14T10:45:02.032Z,96820.22
2023-05-14T10:47:29.509Z,96827.88
2023-05-14T10:50:00.872Z,96812.00
2023-05-14T10:52:27.655Z,96818.03
2023-05-14T10:55:01.928Z,96810.94
2023-05-14T10:57:31.736Z,96811.13
2023-05-14T11:00:01.158Z,96808.72
2023-05-14T11:02:56.107Z,96810.34
2023-05-14T11:05:22.740Z,96806.53
2023-05-14T11:07:50.363Z,96801.84
2023-05-14T11:10:25.915Z,96798.56
2023-05-14T11:12:52.842Z,96793.22
2023-05-14T11:15:24.541Z,96783.16
2023-05-14T11:17:52.500Z,96782.78
2023-05-14T11:20:19.610Z,96781.84
2023-05-14T11:22:48.101Z,96767.91
2023-05-14T11:25:15.214Z,96761.53
2023-05-14T11:27:42.793Z,96772.56
2023-05-14T11:30:17.518Z,96772.41
2023-05-14T11:32:46.175Z,96771.00
2023-05-14T11:35:13.314Z,96765.31
2023-05-14T11:37:40.163Z,96762.75
2023-05-14T11:40:16.300Z,96765.31
2023-05-14T11:42:42.925Z,96767.69
2023-05-14T11:45:13.941Z,96769.84
2023-05-14T11:47:43.484Z,96768.72
2023-05-14T11:50:11.102Z,96760.50
2023-05-14T11:52:40.311Z,96751.00
2023-05-14T11:55:11.619Z,96762.41
2023-05-14T11:57:38.124Z,96751.16
2023-05-14T12:00:08.619Z,96751.63
2023-05-14T12:02:36.210Z,96743.31
2023-05-14T12:05:02.851Z,96752.03
2023-05-14T12:07:30.626Z,96745.31
2023-05-14T12:10:01.392Z,96743.75
2023-05-14T12:12:27.855Z,96749.50
2023-05-14T12:14:54.400Z,96737.38
2023-05-14T12:17:22.604Z,96734.50
2023-05-14T12:19:52.534Z,96727.53
2023-05-14T12:22:22.285Z,96722.03
2023-05-14T12:24:59.314Z,96719.59
2023-05-14T12:27:27.737Z,96720.13
2023-05-14T12:30:19.159Z,96717.94
2023-05-14T12:32:48.947Z,96719.13
2023-05-14T12:35:15.609Z,96711.41
2023-05-14T12:37:42.609Z,96705.47
2023-05-14T12:40:09.799Z,96699.94
2023-05-14T12:42:36.490Z,96700.66
2023-05-14T12:45:05.628Z,96696.00
2023-05-14T12:47:32.408Z,96701.50
2023-05-14T12:49:58.968Z,96699.06
2023-05-14T12:52:36.889Z,96695.81
2023-05-14T12:55:06.918Z,96703.06
2023-05-14T12:57:35.267Z,96688.03
2023-05-14T13:00:07.004Z,96684.53
2023-05-14T13:02:42.318Z,96682.75
2023-05-14T13:05:10.761Z,96687.28
2023-05-14T13:07:37.498Z,96699.31
2023-05-14T13:10:05.759Z,96690.66
2023-05-14T13:12:32.401Z,96688.84
2023-05-14T13:14:58.871Z,96692.25
2023-05-14T13:17:25.626Z,96687.03
2023-05-14T13:19:52.278Z,96686.53
2023-05-14T13:22:18.947Z,96682.41
2023-05-14T13:24:45.680Z,96676.56
2023-05-14T13:27:12.200Z,96680.84
2023-05-14T13:29:38.631Z,96674.38
2023-05-14T13:32:05.376Z,96675.34
2023-05-14T13:34:31.844Z,96670.97
2023-05-14T13:36:59.496Z,96673.50
2023-05-14T13:39:27.181Z,96668.06
2023-05-14T13:41:57.252Z,96664.06
2023-05-14T13:44:24.541Z,96669.00
2023-05-14T13:46:51.086Z,96662.88
2023-05-14T13:49:17.612Z,96656.75
2023-05-14T13:51:44.481Z,96653.47
2023-05-14T13:54:11.188Z,96646.44
2023-05-14T13:56:37.656Z,96642.25
2023-05-14T13:59:04.132Z,96649.25
2023-05-14T14:01:31.828Z,96643.88
2023-05-14T14:03:58.652Z,96638.56
2023-05-14T14:06:27.402Z,96637.59
2023-05-14T14:08:54.057Z,96632.78
2023-05-14T14:11:20.834Z,96631.16
2023-05-14T14:13:47.353Z,96642.50
2023-05-14T14:16:13.784Z,96639.97
2023-05-14T14:18:40.371Z,96639.88
2023-05-14T14:21:06.806Z,96643.06
2023-05-14T14:23:33.346Z,96636.16
2023-05-14T14:26:00.591Z,96644.13
2023-05-14T14:28:27.065Z,96646.06
2023-05-14T14:30:53.596Z,96637.38
2023-05-14T14:33:20.244Z,96644.31
2023-05-14T14:35:46.896Z,96651.59
2023-05-14T14:38:13.734Z,96653.75
2023-05-14T14:40:40.330Z,96647.97
2023-05-14T14:43:06.829Z,96649.56
2023-05-14T14:45:33.403Z,96649.78
2023-05-14T14:48:37.807Z,96654.66
2023-05-14T14:51:06.079Z,96652.50
2023-05-14T14:53:33.285Z,96652.38
2023-05-14T14:56:03.140Z,96657.03
2023-05-14T14:58:30.918Z,96650.81
2023-05-14T15:00:58.005Z,96652.28
2023-05-14T15:03:25.107Z,96645.19
2023-05-14T15:05:53.340Z,96637.38
2023-05-14T15:08:20.874Z,96644.16
2023-05-14T15:10:47.372Z,96642.63
2023-05-14T15:13:13.970Z,96639.53
2023-05-14T15:15:40.612Z,96635.69
2023-05-14T15:18:07.136Z,96635.97
2023-05-14T15:20:33.832Z,96624.56
2023-05-14T15:23:00.307Z,96626.59
2023-05-14T15:25:27.238Z,96635.50
2023-05-14T15:27:53.726Z,96631.75
2023-05-14T15:30:20.448Z,96637.72
2023-05-14T15:32:47.068Z,96639.78
2023-05-14T15:35:13.948Z,96627.66
2023-05-14T15:37:42.773Z,96635.56
2023-05-14T15:40:10.390Z,96631.31
2023-05-14T15:42:38.888Z,96635.75
2023-05-14T15:45:07.123Z,96633.00
2023-05-14T15:47:33.790Z,96637.72
2023-05-14T15:50:00.764Z,96637.66
2023-05-14T15:52:27.234Z,96628.84
2023-05-14T15:54:54.372Z,96624.53
2023-05-14T15:57:20.912Z,96633.09
2023-05-14T15:59:47.587Z,96634.69
2023-05-14T16:02:15.375Z,96629.19
2023-05-14T16:04:41.869Z,96627.13
2023-05-14T16:07:10.058Z,96634.06
2023-05-14T16:09:37.245Z,96623.34
2023-05-14T16:12:05.104Z,96619.19
2023-05-14T16:14:33.795Z,96638.19
2023-05-14T16:17:01.922Z,96623.09
2023-05-14T16:19:28.652Z,96633.97
2023-05-14T16:21:55.316Z,96636.78
2023-05-14T16:24:21.768Z,96637.03
2023-05-14T16:26:48.392Z,96637.47
2023-05-14T16:29:14.807Z,96642.28
2023-05-14T16:31:41.247Z,96643.84
2023-05-14T16:34:07.690Z,96646.91
2023-05-14T16:36:34.192Z,96643.56
2023-05-14T16:41:30.071Z,96646.31
2023-05-14T16:43:56.508Z,96649.16
2023-05-14T16:46:23.009Z,96653.50
2023-05-14T16:48:50.650Z,96650.84
2023-05-14T16:51:17.148Z,96649.84
2023-05-14T16:53:43.588Z,96656.16
2023-05-14T16:56:10.030Z,96649.72
2023-05-14T16:58:36.639Z,96646.53
2023-05-14T17:01:03.097Z,96654.75
2023-05-14T17:03:29.511Z,96647.69
2023-05-14T17:05:55.976Z,96643.44
2023-05-14T17:08:22.480Z,96642.91
2023-05-14T17:10:48.928Z,96643.44
2023-05-14T17:13:15.460Z,96647.75
2023-05-14T17:15:42.563Z,96647.06
2023-05-14T17:18:09.218Z,96646.84
2023-05-14T17:20:35.802Z,96646.78
2023-05-14T17:23:02.360Z,96644.41
2023-05-14T17:25:28.817Z,96652.28
2023-05-14T17:27:55.342Z,96651.28
2023-05-14T17:30:21.968Z,96647.06
2023-05-14T17:32:50.898Z,96647.06
2023-05-14T17:35:17.504Z,96651.44
2023-05-14T17:37:44.004Z,96648.72
2023-05-14T17:40:10.998Z,96655.16
2023-05-14T17:42:37.400Z,96653.63
2023-05-14T17:45:04.153Z,96658.94
2023-05-14T17:47:30.697Z,96664.31
2023-05-14T17:49:57.158Z,96657.97
2023-05-14T17:52:23.685Z,96659.03
2023-05-14T17:54:50.172Z,96654.81
2023-05-14T17:57:16.925Z,96659.13
2023-05-14T17:59:43.537Z,96658.50
2023-05-14T18:02:09.969Z,96661.16
2023-05-14T18:04:36.326Z,96661.16
2023-05-14T18:07:03.222Z,96659.13
2023-05-14T18:09:29.684Z,96663.16
2023-05-14T18:11:57.068Z,96657.72
2023-05-14T18:14:23.413Z,96661.56
2023-05-14T18:16:49.991Z,96665.31
2023-05-14T18:19:16.515Z,96663.25
2023-05-14T18:21:43.241Z,96668.56
2023-05-14T18:24:09.722Z,96669.16
2023-05-14T18:26:36.335Z,96673.47
2023-05-14T18:29:02.706Z,96672.97
2023-05-14T18:31:29.223Z,96670.84
2023-05-14T18:33:55.745Z,96669.28
2023-05-14T18:36:22.311Z,96676.72
2023-05-14T18:38:48.815Z,96675.66
2023-05-14T18:41:15.390Z,96665.56
2023-05-14T18:43:41.814Z,96661.88
2023-05-14T18:46:08.381Z,96666.69
2023-05-14T18:48:35.058Z,96665.13
2023-05-14T18:51:01.644Z,96665.41
2023-05-14T18:53:29.286Z,96664.59
2023-05-14T18:55:56.100Z,96661.47
2023-05-14T18:58:22.555Z,96666.78
2023-05-14T19:00:49.161Z,96667.59
2023-05-14T19:03:15.751Z,96676.59
2023-05-14T19:05:42.383Z,96670.00
2023-05-14T19:08:08.928Z,96673.69
2023-05-14T19:10:35.310Z,96679.28
2023-05-14T19:13:02.213Z,96684.31
2023-05-14T19:15:28.687Z,96685.91
2023-05-14T19:17:55.206Z,96681.41
2023-05-14T19:20:21.788Z,96692.81
2023-05-14T19:22:48.173Z,96690.16
2023-05-14T19:25:14.948Z,96692.81
2023-05-14T19:27:41.482Z,96698.13
2023-05-14T19:30:08.386Z,96692.78
2023-05-14T19:32:37.387Z,96694.38
2023-05-14T19:35:05.796Z,96694.94
2023-05-14T19:37:32.280Z,96693.59
2023-05-14T19:39:58.706Z,96698.34
2023-05-14T19:42:25.253Z,96693.28
2023-05-14T19:44:51.646Z,96685.34
2023-05-14T19:47:18.418Z,96694.06
2023-05-14T19:49:44.897Z,96695.38
2023-05-14T19:52:11.448Z,96693.25
2023-05-14T19:54:37.922Z,96696.41
2023-05-14T19:57:04.712Z,96694.31
2023-05-14T19:59:31.231Z,96691.13
2023-05-14T20:01:57.702Z,96699.09
2023-05-14T20:04:26.079Z,96702.00
2023-05-14T20:06:52.722Z,96701.22
2023-05-14T20:09:20.092Z,96700.16
2023-05-14T20:11:46.480Z,96705.97
2023-05-14T20:14:12.878Z,96700.97
2023-05-14T20:16:39.617Z,96695.38
2023-05-14T20:19:06.616Z,96700.16
2023-05-14T20:21:33.211Z,96704.13
2023-05-14T20:23:59.637Z,96706.28
2023-05-14T20:26:26.069Z,96703.38
2023-05-14T20:28:53.614Z,96709.72
2023-05-14T20:31:21.432Z,96701.78
2023-05-14T20:33:48.222Z,96702.28
2023-05-14T20:36:14.746Z,96693.81
2023-05-14T20:38:41.743Z,96695.94
2023-05-14T20:41:08.424Z,96690.63
2023-05-14T20:43:34.923Z,96685.88
2023-05-14T20:46:01.486Z,96680.03
2023-05-14T20:48:27.916Z,96682.69
2023-05-14T20:50:54.306Z,96673.13
2023-05-14T20:53:21.036Z,96674.19
2023-05-14T20:55:47.452Z,96671.50
2023-05-14T20:58:13.854Z,96674.09
2023-05-14T21:00:40.436Z,96680.44
2023-05-14T21:03:07.146Z,96673.78
2023-05-14T21:05:33.663Z,96675.34
2023-05-14T21:08:00.150Z,96677.69
2023-05-14T21:10:26.826Z,96673.41
2023-05-14T21:12:53.371Z,96674.44
2023-05-14T21:15:19.981Z,96673.91
2023-05-14T21:17:46.490Z,96677.81
2023-05-14T21:20:15.329Z,96673.81
2023-05-14T21:22:41.769Z,96681.19
2023-05-14T21:25:08.652Z,96680.34
2023-05-14T21:27:35.207Z,96684.28
2023-05-14T21:30:01.610Z,96686.91
2023-05-14T21:32:28.259Z,96692.69
2023-05-14T21:34:54.758Z,96684.75
2023-05-14T21:37:21.808Z,96690.59
2023-05-14T21:39:48.269Z,96686.94
2023-05-14T21:42:16.066Z,96685.91
2023-05-14T21:44:42.578Z,96680.94
2023-05-14T21:47:09.023Z,96687.56
2023-05-14T21:49:35.667Z,96686.53
2023-05-14T21:52:02.195Z,96682.84
2023-05-14T21:54:28.688Z,96681.81
2023-05-14T21:56:55.389Z,96678.13
2023-05-14T21:59:21.919Z,96677.81
2023-05-14T22:02:05.681Z,96684.94
2023-05-14T22:04:33.746Z,96680.13
2023-05-14T22:07:00.157Z,96690.72
2023-05-14T22:09:26.712Z,96675.38
2023-05-14T22:11:53.170Z,96677.53
2023-05-14T22:14:19.623Z,96682.31
2023-05-14T22:16:47.189Z,96680.22
2023-05-14T22:19:13.647Z,96680.72
2023-05-14T22:21:40.239Z,96673.31
2023-05-14T22:24:07.424Z,96674.94
2023-05-14T22:26:34.642Z,96672.00
2023-05-14T22:29:01.086Z,96666.97
2023-05-14T22:31:27.578Z,96674.81
2023-05-14T22:33:54.121Z,96669.50
2023-05-14T22:36:20.557Z,96673.44
2023-05-14T22:38:46.973Z,96666.25
2023-05-14T22:41:13.447Z,96672.56
2023-05-14T22:43:39.933Z,96657.75
2023-05-14T22:46:06.873Z,96659.81
2023-05-14T22:48:33.429Z,96666.72
2023-05-14T22:50:59.835Z,96658.75
2023-05-14T22:53:26.458Z,96657.16
2023-05-14T22:55:52.955Z,96657.66
2023-05-14T22:58:19.849Z,96655.94
2023-05-14T23:00:46.424Z,96660.63
2023-05-14T23:03:12.894Z,96647.41
2023-05-14T23:05:39.548Z,96640.53
2023-05-14T23:08:06.392Z,96646.31
2023-05-14T23:10:33.659Z,96641.03
2023-05-14T23:13:00.145Z,96638.34
2023-05-14T23:15:26.874Z,96639.34
2023-05-14T23:17:53.553Z,96642.44
2023-05-14T23:20:20.200Z,96645.56
2023-05-14T23:22:46.604Z,96642.06
2023-05-14T23:25:13.105Z,96641.75
2023-05-14T23:27:39.562Z,96643.88
2023-05-14T23:30:06.802Z,96645.97
2023-05-14T23:32:33.286Z,96638.59
2023-05-14T23:34:59.728Z,96640.69
2023-05-14T23:37:26.416Z,96635.41
2023-05-14T23:39:53.392Z,96634.13
2023-05-14T23:42:20.124Z,96630.13
2023-05-14T23:44:46.794Z,96630.69
2023-05-14T23:47:13.430Z,96633.84
2023-05-14T23:49:40.771Z,96627.53
2023-05-14T23:52:07.541Z,96621.13
2023-05-14T23:54:33.961Z,96623.16
2023-05-14T23:57:00.764Z,96628.34
2023-05-14T23:59:27.194Z,96629.31
